Portada
METAR-TAF:

METAR-TAF

Aeroports :

Al-Kuwait, Kuwait

latitud: 29-13N, longitud: 047-59E, altitud: 55 m

Observació

L'informe es va fer fa 17 minuts, a les 04:00 UTC
Vent 7 kt del Nord
Temperatura 37°C
Humitat 17%
Pressió 998 hPa
Visibilitat: 6000 m
Cel clar

METAR: OKBK 240400Z 35007KT 6000 SKC 37/08 Q0998 NOSIG

Hora: 07:17 (04:17 UTC)

Pronòstic

L'informe es va fer fa 5 hores i 32 minuts, a les 22:45 UTC
Pronòstic vàlid del 24 a les 00 UTC al 25 a les 06 UTC
Vent 10 kt del Nord amb ràfegues de 20 kt
Visibilitat: 7000 m

TAF: OKBK 232245Z 2400/2506 35010G20KT 7000 NSC

Observacions i pronòstics meteorològics de més de 4000 aeroports (METAR i TAF).

Les estacions disponibles són els punts grocs i vermells al mapa.

Posi el ratolí al punt desitjat per veure el nom de l'estació.

Feu clic per veure les observacions i els pronòstics meteorològics.

Per canviar el mapa: feu clic els botons verds amb una creu de color negre per apropar; al botó verd amb un guió per allunyar la imatge; o en les fletxes verdes per a mapes adjacents.


METAR-TAF: